Time;durP1;ratioP1;P1;durP2;ratioP2;P2;SDS_P1;SDS_P2;PMS_P1;PMS_P2;Temp;Humidity;BMP_temperature;BMP_pressure;BME280_temperature;BME280_humidity;BME280_pressure;Samples;Min_cycle;Max_cycle;Signal;HPM_P1;HPM_P2
2023/08/04 00:02:10;;;;;;;8.80;4.23;;;;;;;;;;5043427;28;20488;-80
2023/08/04 00:04:37;;;;;;;8.77;4.30;;;;;;;;;;5041566;28;20449;-80
2023/08/04 00:07:03;;;;;;;10.53;4.73;;;;;;;;;;5040818;28;20440;-82
2023/08/04 00:09:30;;;;;;;10.80;4.50;;;;;;;;;;5041281;28;20456;-80
2023/08/04 00:11:58;;;;;;;5.07;3.70;;;;;;;;;;5040527;28;20485;-80
2023/08/04 00:14:24;;;;;;;8.70;4.30;;;;;;;;;;5040167;28;20464;-81
2023/08/04 00:16:50;;;;;;;9.30;4.20;;;;;;;;;;5042360;28;21079;-80
2023/08/04 00:19:17;;;;;;;10.70;4.37;;;;;;;;;;5041123;28;20474;-81
2023/08/04 00:21:43;;;;;;;9.03;3.50;;;;;;;;;;5041211;28;20833;-81
2023/08/04 00:24:09;;;;;;;9.17;4.60;;;;;;;;;;5041562;28;20879;-80
2023/08/04 00:26:36;;;;;;;6.37;3.60;;;;;;;;;;5042050;28;20457;-80
2023/08/04 00:29:03;;;;;;;6.00;4.30;;;;;;;;;;5045623;28;20475;-80
2023/08/04 00:31:30;;;;;;;4.67;3.20;;;;;;;;;;5042524;28;20490;-80
2023/08/04 00:33:56;;;;;;;9.73;5.30;;;;;;;;;;5038824;28;20507;-80
2023/08/04 00:36:23;;;;;;;8.07;3.30;;;;;;;;;;5042850;28;21025;-80
2023/08/04 00:38:49;;;;;;;9.17;3.53;;;;;;;;;;5041250;28;20482;-80
2023/08/04 00:41:15;;;;;;;4.60;3.40;;;;;;;;;;5041578;28;20464;-81
2023/08/04 00:43:42;;;;;;;9.87;4.10;;;;;;;;;;5041999;28;20470;-81
2023/08/04 00:46:10;;;;;;;5.60;3.10;;;;;;;;;;5042180;28;20468;-80
2023/08/04 00:48:38;;;;;;;8.43;3.43;;;;;;;;;;5041437;28;20476;-80
2023/08/04 00:51:05;;;;;;;6.27;3.83;;;;;;;;;;5040025;28;20484;-80
2023/08/04 00:53:32;;;;;;;6.77;3.80;;;;;;;;;;5042858;28;21077;-80
2023/08/04 00:55:58;;;;;;;6.13;3.77;;;;;;;;;;5042633;28;20486;-81
2023/08/04 00:58:24;;;;;;;9.80;4.10;;;;;;;;;;5043358;28;20475;-81
2023/08/04 01:00:51;;;;;;;7.53;3.43;;;;;;;;;;5043286;28;20480;-80
2023/08/04 01:03:19;;;;;;;7.47;4.40;;;;;;;;;;5041363;28;20895;-80
2023/08/04 01:05:48;;;;;;;11.53;3.97;;;;;;;;;;5042694;28;20539;-81
2023/08/04 01:08:18;;;;;;;4.10;3.70;;;;;;;;;;5041968;28;20535;-80
2023/08/04 01:10:47;;;;;;;8.80;4.10;;;;;;;;;;5042835;28;20859;-80
2023/08/04 01:13:16;;;;;;;14.83;4.70;;;;;;;;;;5040786;28;20899;-80
2023/08/04 01:15:42;;;;;;;8.70;3.67;;;;;;;;;;5041923;28;20460;-80
2023/08/04 01:18:09;;;;;;;8.30;3.90;;;;;;;;;;5039898;28;20475;-80
2023/08/04 01:20:37;;;;;;;9.57;4.63;;;;;;;;;;5041370;28;20460;-80
2023/08/04 01:23:04;;;;;;;8.70;4.23;;;;;;;;;;5039548;28;20586;-80
2023/08/04 01:25:34;;;;;;;7.70;3.83;;;;;;;;;;5041032;28;20470;-80
2023/08/04 01:28:01;;;;;;;9.17;4.10;;;;;;;;;;5038758;28;20473;-80
2023/08/04 01:30:28;;;;;;;7.30;4.03;;;;;;;;;;5041369;28;20475;-80
2023/08/04 01:32:54;;;;;;;7.10;4.23;;;;;;;;;;5041283;28;20527;-80
2023/08/04 01:35:21;;;;;;;8.10;4.23;;;;;;;;;;5041976;28;20466;-80
2023/08/04 01:37:47;;;;;;;7.77;3.67;;;;;;;;;;5038787;28;20593;-80
2023/08/04 01:40:15;;;;;;;12.10;4.80;;;;;;;;;;5040505;28;20438;-81
2023/08/04 01:42:42;;;;;;;13.23;4.27;;;;;;;;;;5040786;28;21014;-80
2023/08/04 01:45:08;;;;;;;12.77;4.50;;;;;;;;;;5042412;28;20463;-80
2023/08/04 01:47:35;;;;;;;4.03;3.73;;;;;;;;;;5039380;28;20493;-80
2023/08/04 01:50:02;;;;;;;10.97;5.10;;;;;;;;;;5043035;28;20457;-80
2023/08/04 01:52:29;;;;;;;11.27;3.90;;;;;;;;;;5041767;28;20513;-81
2023/08/04 01:54:56;;;;;;;6.40;4.20;;;;;;;;;;5040694;28;20467;-81
2023/08/04 01:57:24;;;;;;;7.47;4.23;;;;;;;;;;5040704;28;20470;-80
2023/08/04 01:59:50;;;;;;;10.40;4.00;;;;;;;;;;5038162;28;20455;-80
2023/08/04 02:02:17;;;;;;;6.30;4.87;;;;;;;;;;5038750;28;20488;-80
2023/08/04 02:04:43;;;;;;;12.50;5.00;;;;;;;;;;5042627;28;20456;-80
2023/08/04 02:07:11;;;;;;;7.77;4.33;;;;;;;;;;5040068;28;20951;-80
2023/08/04 02:09:38;;;;;;;11.30;4.83;;;;;;;;;;5040187;28;20436;-81
2023/08/04 02:12:04;;;;;;;11.33;4.57;;;;;;;;;;5042671;28;20568;-82
2023/08/04 02:14:33;;;;;;;10.10;5.00;;;;;;;;;;5043510;28;20436;-80
2023/08/04 02:16:59;;;;;;;6.80;4.37;;;;;;;;;;5040882;28;20460;-81
2023/08/04 02:19:26;;;;;;;15.83;6.07;;;;;;;;;;5042821;28;20510;-80
2023/08/04 02:21:52;;;;;;;11.83;5.40;;;;;;;;;;5041382;28;20472;-81
2023/08/04 02:24:19;;;;;;;10.40;5.20;;;;;;;;;;5038906;28;20476;-81
2023/08/04 02:26:45;;;;;;;8.60;5.10;;;;;;;;;;5040612;28;20436;-80
2023/08/04 02:29:11;;;;;;;19.17;7.00;;;;;;;;;;5039268;28;20464;-80
2023/08/04 02:31:39;;;;;;;9.43;5.93;;;;;;;;;;5042509;28;20495;-81
2023/08/04 02:34:06;;;;;;;7.93;5.77;;;;;;;;;;5041385;28;20483;-81
2023/08/04 02:36:33;;;;;;;12.80;6.20;;;;;;;;;;5041311;28;20525;-81
2023/08/04 02:38:59;;;;;;;12.20;5.77;;;;;;;;;;5037394;28;20484;-80
2023/08/04 02:41:26;;;;;;;21.27;7.80;;;;;;;;;;5041349;28;20459;-80
2023/08/04 02:43:52;;;;;;;16.80;5.70;;;;;;;;;;5041182;28;20464;-80
2023/08/04 02:46:20;;;;;;;11.47;5.30;;;;;;;;;;5042685;28;20456;-81
2023/08/04 02:48:48;;;;;;;11.67;5.93;;;;;;;;;;5040275;28;20914;-80
2023/08/04 02:51:14;;;;;;;13.80;6.23;;;;;;;;;;5040577;28;20534;-80
2023/08/04 02:53:43;;;;;;;11.20;6.03;;;;;;;;;;5039236;28;20475;-80
2023/08/04 02:56:10;;;;;;;10.90;5.10;;;;;;;;;;5041441;28;20487;-80
2023/08/04 02:58:36;;;;;;;10.30;5.67;;;;;;;;;;5038288;28;20480;-81
2023/08/04 03:01:03;;;;;;;8.93;6.10;;;;;;;;;;5041709;28;20442;-80
2023/08/04 03:03:29;;;;;;;11.70;5.53;;;;;;;;;;5043201;28;20541;-80
2023/08/04 03:05:58;;;;;;;9.00;5.43;;;;;;;;;;5042248;28;20457;-81
2023/08/04 03:08:26;;;;;;;9.03;5.37;;;;;;;;;;5042890;28;20476;-80
2023/08/04 03:10:52;;;;;;;11.07;5.97;;;;;;;;;;5044329;28;20546;-80
2023/08/04 03:13:19;;;;;;;12.63;5.20;;;;;;;;;;5041921;28;20487;-80
2023/08/04 03:15:45;;;;;;;13.20;6.43;;;;;;;;;;5043123;28;20460;-81
2023/08/04 03:18:12;;;;;;;12.47;5.40;;;;;;;;;;5045785;28;20477;-81
2023/08/04 03:20:39;;;;;;;9.40;5.80;;;;;;;;;;5045665;28;20852;-80
2023/08/04 03:23:07;;;;;;;10.63;4.77;;;;;;;;;;5042415;28;20484;-81
2023/08/04 03:25:34;;;;;;;7.97;5.27;;;;;;;;;;5041498;28;20947;-81
2023/08/04 03:28:01;;;;;;;10.63;4.97;;;;;;;;;;5043831;28;20476;-81
2023/08/04 03:30:28;;;;;;;17.93;5.43;;;;;;;;;;5042874;28;20996;-80
2023/08/04 03:32:54;;;;;;;12.13;5.33;;;;;;;;;;5042329;28;20475;-81
2023/08/04 03:35:21;;;;;;;10.43;4.70;;;;;;;;;;5044362;28;20451;-80
2023/08/04 03:37:47;;;;;;;10.07;5.70;;;;;;;;;;5045524;28;20472;-80
2023/08/04 03:40:15;;;;;;;11.97;4.47;;;;;;;;;;5044143;28;20475;-80
2023/08/04 03:42:44;;;;;;;8.10;4.50;;;;;;;;;;5044850;28;20852;-81
2023/08/04 03:45:10;;;;;;;11.60;4.70;;;;;;;;;;5042569;28;20467;-80
2023/08/04 03:47:37;;;;;;;9.27;4.43;;;;;;;;;;5041715;28;20476;-80
2023/08/04 03:50:03;;;;;;;9.43;5.10;;;;;;;;;;5044199;28;20448;-81
2023/08/04 03:52:30;;;;;;;10.03;5.10;;;;;;;;;;5043236;28;20517;-80
2023/08/04 03:54:57;;;;;;;10.10;4.77;;;;;;;;;;5044773;28;20468;-81
2023/08/04 03:57:26;;;;;;;10.80;4.20;;;;;;;;;;5041019;28;20976;-81
2023/08/04 03:59:52;;;;;;;10.80;4.67;;;;;;;;;;5044886;28;20463;-80
2023/08/04 04:02:19;;;;;;;10.37;5.03;;;;;;;;;;5043035;28;20661;-80
2023/08/04 04:04:45;;;;;;;9.13;4.80;;;;;;;;;;5045558;28;20461;-80
2023/08/04 04:07:11;;;;;;;9.93;5.97;;;;;;;;;;5041733;28;20445;-81
2023/08/04 04:09:38;;;;;;;10.97;5.03;;;;;;;;;;5043076;28;20475;-80
2023/08/04 04:12:04;;;;;;;7.73;4.87;;;;;;;;;;5041160;28;20472;-82
2023/08/04 04:14:32;;;;;;;9.37;4.80;;;;;;;;;;5040544;28;20452;-80
2023/08/04 04:16:59;;;;;;;13.00;4.77;;;;;;;;;;5044262;28;20989;-81
2023/08/04 04:19:25;;;;;;;9.20;4.90;;;;;;;;;;5041571;28;20534;-80
2023/08/04 04:21:52;;;;;;;8.63;4.97;;;;;;;;;;5041165;28;20476;-81
2023/08/04 04:24:18;;;;;;;10.13;5.27;;;;;;;;;;5042186;28;20483;-81
2023/08/04 04:26:45;;;;;;;10.50;5.40;;;;;;;;;;5042227;28;20449;-81
2023/08/04 04:29:11;;;;;;;21.97;5.40;;;;;;;;;;5044056;28;20472;-80
2023/08/04 04:31:39;;;;;;;14.70;5.33;;;;;;;;;;5043585;28;20488;-80
2023/08/04 04:34:05;;;;;;;11.80;4.77;;;;;;;;;;5040489;28;20476;-80
2023/08/04 04:36:32;;;;;;;10.17;5.30;;;;;;;;;;5041853;28;20467;-80
2023/08/04 04:38:58;;;;;;;8.40;5.27;;;;;;;;;;5038848;28;20465;-80
2023/08/04 04:41:25;;;;;;;15.30;6.20;;;;;;;;;;5040946;28;20456;-80
2023/08/04 04:43:52;;;;;;;7.57;4.23;;;;;;;;;;5040141;28;20472;-80
2023/08/04 04:46:19;;;;;;;12.73;5.67;;;;;;;;;;5043662;28;20454;-80
2023/08/04 04:48:46;;;;;;;12.47;5.07;;;;;;;;;;5041239;28;20841;-80
2023/08/04 04:51:13;;;;;;;11.67;4.80;;;;;;;;;;5038852;28;20467;-80
2023/08/04 04:53:39;;;;;;;12.10;6.10;;;;;;;;;;5042535;28;20476;-80
2023/08/04 04:56:06;;;;;;;12.70;5.27;;;;;;;;;;5041847;28;20472;-80
2023/08/04 04:58:33;;;;;;;8.50;4.87;;;;;;;;;;5043060;28;20475;-80
2023/08/04 05:01:02;;;;;;;13.63;4.97;;;;;;;;;;5042642;28;20459;-81
2023/08/04 05:03:29;;;;;;;7.80;4.70;;;;;;;;;;5042318;28;20483;-80
2023/08/04 05:05:57;;;;;;;6.40;4.37;;;;;;;;;;5041509;28;20838;-80
2023/08/04 05:08:23;;;;;;;6.03;4.13;;;;;;;;;;5041792;28;20471;-80
2023/08/04 05:10:50;;;;;;;7.00;4.40;;;;;;;;;;5041943;28;20457;-81
2023/08/04 05:13:16;;;;;;;12.73;4.83;;;;;;;;;;5040159;28;20476;-81
2023/08/04 05:15:43;;;;;;;10.40;5.10;;;;;;;;;;5042009;28;20833;-80
2023/08/04 05:18:10;;;;;;;9.23;4.20;;;;;;;;;;5040688;28;20468;-80
2023/08/04 05:20:37;;;;;;;10.63;5.27;;;;;;;;;;5043703;28;20451;-80
2023/08/04 05:23:05;;;;;;;8.13;5.43;;;;;;;;;;5039268;28;21044;-80
2023/08/04 05:25:31;;;;;;;12.90;5.20;;;;;;;;;;5041665;28;20985;-80
2023/08/04 05:28:18;;;;;;;10.00;6.43;;;;;;;;;;5040835;28;20981;-80
2023/08/04 05:30:44;;;;;;;11.20;4.60;;;;;;;;;;5042463;28;20455;-80
2023/08/04 05:33:11;;;;;;;7.50;3.90;;;;;;;;;;5040887;28;20480;-80
2023/08/04 05:35:38;;;;;;;6.30;3.93;;;;;;;;;;5042449;28;20482;-81
2023/08/04 05:38:06;;;;;;;9.57;4.50;;;;;;;;;;5041043;28;20493;-81
2023/08/04 05:40:33;;;;;;;5.40;4.87;;;;;;;;;;5038812;28;22086;-80
2023/08/04 05:43:00;;;;;;;7.43;4.23;;;;;;;;;;5042402;28;21067;-80
2023/08/04 05:45:26;;;;;;;11.47;5.40;;;;;;;;;;5041699;28;20522;-80
2023/08/04 05:47:52;;;;;;;5.40;4.47;;;;;;;;;;5039799;28;20488;-81
2023/08/04 05:50:19;;;;;;;5.40;4.30;;;;;;;;;;5040191;28;20474;-80
2023/08/04 05:52:45;;;;;;;11.73;4.43;;;;;;;;;;5040314;28;20477;-80
2023/08/04 05:55:13;;;;;;;7.97;4.90;;;;;;;;;;5040485;28;20455;-80
2023/08/04 05:57:39;;;;;;;12.27;4.80;;;;;;;;;;5040678;28;21489;-80
2023/08/04 06:00:07;;;;;;;15.80;4.40;;;;;;;;;;5039497;28;20861;-79
2023/08/04 06:02:33;;;;;;;7.57;5.40;;;;;;;;;;5039235;28;20486;-79
2023/08/04 06:05:00;;;;;;;8.03;5.17;;;;;;;;;;5041784;28;20460;-79
2023/08/04 06:07:26;;;;;;;9.37;4.10;;;;;;;;;;5041103;28;20506;-79
2023/08/04 06:09:52;;;;;;;7.17;4.53;;;;;;;;;;5042755;28;20945;-79
2023/08/04 06:12:20;;;;;;;7.20;4.57;;;;;;;;;;5038619;28;20475;-80
2023/08/04 06:14:47;;;;;;;6.50;4.00;;;;;;;;;;5043123;28;20472;-80
2023/08/04 06:17:13;;;;;;;5.20;4.20;;;;;;;;;;5036642;28;20957;-79
2023/08/04 06:19:40;;;;;;;10.60;4.50;;;;;;;;;;5038877;28;20894;-80
2023/08/04 06:22:09;;;;;;;8.87;3.80;;;;;;;;;;5042894;28;20533;-80
2023/08/04 06:24:35;;;;;;;5.97;3.90;;;;;;;;;;5039324;28;20586;-80
2023/08/04 06:27:03;;;;;;;10.43;3.77;;;;;;;;;;5042920;28;20464;-80
2023/08/04 06:29:31;;;;;;;7.40;4.20;;;;;;;;;;5039689;28;20927;-80
2023/08/04 06:31:57;;;;;;;5.57;3.80;;;;;;;;;;5040542;28;20483;-80
2023/08/04 06:34:23;;;;;;;8.00;4.20;;;;;;;;;;5040175;28;21017;-79
2023/08/04 06:36:50;;;;;;;5.80;3.27;;;;;;;;;;5042949;28;20471;-80
2023/08/04 06:39:16;;;;;;;8.00;3.27;;;;;;;;;;5039809;28;20484;-80
2023/08/04 06:41:43;;;;;;;4.23;3.40;;;;;;;;;;5041886;28;20468;-80
2023/08/04 06:44:09;;;;;;;8.97;4.97;;;;;;;;;;5046508;28;20475;-79
2023/08/04 06:46:37;;;;;;;7.23;2.20;;;;;;;;;;5044899;28;20463;-79
2023/08/04 06:49:03;;;;;;;2.80;2.00;;;;;;;;;;5044243;28;20472;-79
2023/08/04 06:51:30;;;;;;;4.03;2.63;;;;;;;;;;5046408;28;20460;-80
2023/08/04 06:53:56;;;;;;;3.03;2.70;;;;;;;;;;5042893;28;20483;-80
2023/08/04 06:56:23;;;;;;;6.83;3.10;;;;;;;;;;5044343;28;20486;-79
2023/08/04 06:58:49;;;;;;;5.57;2.90;;;;;;;;;;5045668;28;20479;-80
2023/08/04 07:01:16;;;;;;;6.63;3.23;;;;;;;;;;5044641;28;20461;-80
2023/08/04 07:03:47;;;;;;;5.23;3.27;;;;;;;;;;5044148;28;20479;-80
2023/08/04 07:06:13;;;;;;;6.53;2.77;;;;;;;;;;5042779;28;20456;-79
2023/08/04 07:08:40;;;;;;;7.33;3.43;;;;;;;;;;5044480;28;20472;-79
2023/08/04 07:11:12;;;;;;;8.80;3.47;;;;;;;;;;5042598;28;20849;-80
2023/08/04 07:13:39;;;;;;;4.70;3.20;;;;;;;;;;5044020;28;20468;-79
2023/08/04 07:16:05;;;;;;;8.93;3.37;;;;;;;;;;5044580;28;20463;-79
2023/08/04 07:18:31;;;;;;;10.47;4.20;;;;;;;;;;5045356;28;20498;-79
2023/08/04 07:21:06;;;;;;;4.73;3.20;;;;;;;;;;5045290;28;20839;-80
2023/08/04 07:23:33;;;;;;;6.87;3.50;;;;;;;;;;5045364;28;20475;-81
2023/08/04 07:25:59;;;;;;;9.00;3.53;;;;;;;;;;5044806;28;20488;-80
2023/08/04 07:28:26;;;;;;;5.10;3.60;;;;;;;;;;5045151;28;20482;-81
2023/08/04 07:30:54;;;;;;;5.77;3.87;;;;;;;;;;5043520;28;20464;-80
2023/08/04 07:33:20;;;;;;;7.50;3.40;;;;;;;;;;5041899;28;20476;-80
2023/08/04 07:35:53;;;;;;;5.90;4.00;;;;;;;;;;5027845;28;20507;-81
2023/08/04 07:38:21;;;;;;;8.13;4.30;;;;;;;;;;5043679;28;20476;-82
2023/08/04 07:40:47;;;;;;;6.93;4.80;;;;;;;;;;5044574;28;20464;-81
2023/08/04 07:43:13;;;;;;;10.50;3.57;;;;;;;;;;5043489;28;20475;-81
2023/08/04 07:45:40;;;;;;;6.30;3.47;;;;;;;;;;5042741;28;20468;-81
2023/08/04 07:48:06;;;;;;;7.50;4.67;;;;;;;;;;5043471;28;20476;-81
2023/08/04 07:50:33;;;;;;;5.30;3.80;;;;;;;;;;5044848;28;20467;-81
2023/08/04 07:52:59;;;;;;;4.10;3.53;;;;;;;;;;5039948;28;20464;-81
2023/08/04 07:55:27;;;;;;;3.60;3.20;;;;;;;;;;5029515;28;20456;-82
2023/08/04 07:57:53;;;;;;;6.57;3.30;;;;;;;;;;5043353;28;20845;-82
2023/08/04 08:00:20;;;;;;;4.20;3.33;;;;;;;;;;5043433;28;20451;-81
2023/08/04 08:02:46;;;;;;;8.70;3.30;;;;;;;;;;5043980;28;20477;-81
2023/08/04 08:05:12;;;;;;;4.03;3.20;;;;;;;;;;5041839;28;20457;-81
2023/08/04 08:07:39;;;;;;;4.13;3.27;;;;;;;;;;5045764;28;20973;-81
2023/08/04 08:10:05;;;;;;;7.87;3.67;;;;;;;;;;5044254;28;20472;-81
2023/08/04 08:12:33;;;;;;;4.00;2.80;;;;;;;;;;5042691;28;21028;-81
2023/08/04 08:15:00;;;;;;;3.27;2.97;;;;;;;;;;5042087;28;20475;-80
2023/08/04 08:17:27;;;;;;;3.23;2.80;;;;;;;;;;5044064;28;20468;-81
2023/08/04 08:19:54;;;;;;;5.43;3.03;;;;;;;;;;5043861;28;20491;-81
2023/08/04 08:22:20;;;;;;;3.17;2.63;;;;;;;;;;5043272;28;20483;-81
2023/08/04 08:24:47;;;;;;;4.00;2.47;;;;;;;;;;5043339;28;20463;-81
2023/08/04 08:27:14;;;;;;;5.03;2.40;;;;;;;;;;5042350;28;20460;-81
2023/08/04 08:29:43;;;;;;;4.00;2.00;;;;;;;;;;5042090;28;20476;-81
2023/08/04 08:32:09;;;;;;;2.60;2.17;;;;;;;;;;5041884;28;20570;-81
2023/08/04 08:34:36;;;;;;;2.93;2.20;;;;;;;;;;5041099;28;20469;-81
2023/08/04 08:37:03;;;;;;;4.40;1.93;;;;;;;;;;5042494;28;20468;-81
2023/08/04 08:39:29;;;;;;;2.20;2.00;;;;;;;;;;5041336;28;20492;-81
2023/08/04 08:41:58;;;;;;;5.73;2.50;;;;;;;;;;5043235;28;20472;-81
2023/08/04 08:44:24;;;;;;;1.63;1.53;;;;;;;;;;5040416;28;20473;-82
2023/08/04 08:46:52;;;;;;;2.90;1.70;;;;;;;;;;5045396;28;20464;-81
2023/08/04 08:49:21;;;;;;;1.47;1.30;;;;;;;;;;5057170;28;20894;-82
2023/08/04 08:51:50;;;;;;;1.27;1.00;;;;;;;;;;5044379;28;20506;-82
2023/08/04 08:54:17;;;;;;;2.07;1.20;;;;;;;;;;5040578;28;20566;-82
2023/08/04 08:56:44;;;;;;;2.10;1.10;;;;;;;;;;5042208;28;20463;-81
2023/08/04 08:59:10;;;;;;;1.37;1.27;;;;;;;;;;5042288;28;20479;-82
2023/08/04 09:01:37;;;;;;;1.13;0.90;;;;;;;;;;5042538;28;20476;-81
2023/08/04 09:04:05;;;;;;;1.83;0.83;;;;;;;;;;5040097;28;20475;-81
2023/08/04 09:06:32;;;;;;;2.30;1.50;;;;;;;;;;5044583;28;20459;-81
2023/08/04 09:09:00;;;;;;;1.13;1.00;;;;;;;;;;5040775;28;20882;-81
2023/08/04 09:11:28;;;;;;;1.37;1.20;;;;;;;;;;5040992;28;20457;-82
2023/08/04 09:13:56;;;;;;;1.27;1.00;;;;;;;;;;5039807;28;20860;-82
2023/08/04 09:16:31;;;;;;;1.50;1.40;;;;;;;;;;5042506;28;20484;-81
2023/08/04 09:19:03;;;;;;;1.60;1.37;;;;;;;;;;5040149;28;20476;-81
2023/08/04 09:21:31;;;;;;;2.87;1.43;;;;;;;;;;5042230;28;20460;-82
2023/08/04 09:23:58;;;;;;;1.57;1.20;;;;;;;;;;5041138;28;20994;-81
2023/08/04 09:26:24;;;;;;;5.10;1.30;;;;;;;;;;5041638;28;20456;-81
2023/08/04 09:29:03;;;;;;;2.47;1.60;;;;;;;;;;5042622;28;21108;-81
2023/08/04 09:31:34;;;;;;;3.03;1.27;;;;;;;;;;5040880;28;20460;-81
2023/08/04 09:34:00;;;;;;;1.63;1.50;;;;;;;;;;5041907;28;20487;-81
2023/08/04 09:36:27;;;;;;;1.90;1.10;;;;;;;;;;5042940;28;20464;-81
2023/08/04 09:39:02;;;;;;;1.27;1.17;;;;;;;;;;5043703;28;21017;-81
2023/08/04 09:41:29;;;;;;;2.53;1.57;;;;;;;;;;5041433;28;20459;-81
2023/08/04 09:43:56;;;;;;;1.70;1.43;;;;;;;;;;5043514;28;20479;-81
2023/08/04 09:46:22;;;;;;;2.33;1.67;;;;;;;;;;5040578;28;20463;-80
2023/08/04 09:48:49;;;;;;;2.17;1.47;;;;;;;;;;5040662;28;20483;-81
2023/08/04 09:51:18;;;;;;;5.20;2.10;;;;;;;;;;5043788;28;20969;-81
2023/08/04 09:53:46;;;;;;;1.33;1.23;;;;;;;;;;5039498;28;21026;-82
2023/08/04 09:56:14;;;;;;;2.97;1.43;;;;;;;;;;5039477;28;20467;-82
2023/08/04 09:58:41;;;;;;;2.50;1.43;;;;;;;;;;5042002;28;20821;-82
2023/08/04 10:01:08;;;;;;;3.30;1.70;;;;;;;;;;5042140;28;21108;-82
2023/08/04 10:03:35;;;;;;;2.73;1.63;;;;;;;;;;5040397;28;20489;-81
2023/08/04 10:06:03;;;;;;;1.47;1.37;;;;;;;;;;5041411;28;20451;-82
2023/08/04 10:08:30;;;;;;;2.27;1.63;;;;;;;;;;5041533;28;20492;-80
2023/08/04 10:10:57;;;;;;;1.37;1.13;;;;;;;;;;5044643;28;20456;-81
2023/08/04 10:13:25;;;;;;;3.10;2.10;;;;;;;;;;5040630;28;20476;-81
2023/08/04 10:15:52;;;;;;;4.00;1.83;;;;;;;;;;5041139;28;20460;-81
2023/08/04 10:18:18;;;;;;;5.13;1.90;;;;;;;;;;5043525;28;21020;-80
2023/08/04 10:20:45;;;;;;;4.63;2.00;;;;;;;;;;5046675;28;20562;-81
2023/08/04 10:23:12;;;;;;;1.80;1.70;;;;;;;;;;5045404;28;20483;-81
2023/08/04 10:25:38;;;;;;;2.57;2.00;;;;;;;;;;5046195;28;20455;-81
2023/08/04 10:28:05;;;;;;;2.97;2.13;;;;;;;;;;5043450;28;20468;-81
2023/08/04 10:30:32;;;;;;;2.73;1.60;;;;;;;;;;5044501;28;20460;-81
2023/08/04 10:33:09;;;;;;;5.00;2.37;;;;;;;;;;5044719;28;20958;-81
2023/08/04 10:35:55;;;;;;;5.20;2.20;;;;;;;;;;5044903;28;20475;-80
2023/08/04 10:38:22;;;;;;;3.53;2.40;;;;;;;;;;5044286;28;20484;-80
2023/08/04 10:40:48;;;;;;;3.57;2.10;;;;;;;;;;5045524;28;20459;-80
2023/08/04 10:43:21;;;;;;;3.40;2.50;;;;;;;;;;5047155;28;20480;-80
2023/08/04 10:45:52;;;;;;;7.60;3.00;;;;;;;;;;5045048;28;20459;-81
2023/08/04 10:48:19;;;;;;;5.17;2.70;;;;;;;;;;5044390;28;20534;-80
2023/08/04 10:50:46;;;;;;;3.17;2.93;;;;;;;;;;5045180;28;21032;-81
2023/08/04 10:53:12;;;;;;;4.40;2.60;;;;;;;;;;5043921;28;20487;-81
2023/08/04 10:55:50;;;;;;;5.03;2.30;;;;;;;;;;5043445;28;21143;-81
2023/08/04 10:58:16;;;;;;;2.70;2.50;;;;;;;;;;5043862;28;20558;-81
2023/08/04 11:00:43;;;;;;;2.40;2.00;;;;;;;;;;5042870;28;20436;-81
2023/08/04 11:03:18;;;;;;;4.47;2.03;;;;;;;;;;5041543;28;20475;-80
2023/08/04 11:05:45;;;;;;;4.23;2.10;;;;;;;;;;5042193;28;20459;-81
2023/08/04 11:08:11;;;;;;;3.93;2.40;;;;;;;;;;5044935;28;20480;-81
2023/08/04 11:10:38;;;;;;;3.03;2.00;;;;;;;;;;5043908;28;20511;-81
2023/08/04 11:13:06;;;;;;;2.57;1.87;;;;;;;;;;5042972;28;20482;-81
2023/08/04 11:15:41;;;;;;;3.37;1.93;;;;;;;;;;5042970;28;20483;-80
2023/08/04 11:18:11;;;;;;;2.30;2.10;;;;;;;;;;5043080;28;20488;-80
2023/08/04 11:20:40;;;;;;;4.73;1.90;;;;;;;;;;5043576;28;20462;-80
2023/08/04 11:23:08;;;;;;;2.47;1.60;;;;;;;;;;5043623;28;20487;-80
2023/08/04 11:25:35;;;;;;;1.83;1.73;;;;;;;;;;5042203;28;20453;-80
2023/08/04 11:28:02;;;;;;;1.83;1.67;;;;;;;;;;5042374;28;20484;-80
2023/08/04 11:30:28;;;;;;;3.23;1.40;;;;;;;;;;5045203;28;20471;-81
2023/08/04 11:32:54;;;;;;;2.80;1.67;;;;;;;;;;5045436;28;20469;-81
2023/08/04 11:35:21;;;;;;;9.30;2.00;;;;;;;;;;5046148;28;20510;-81
2023/08/04 11:37:50;;;;;;;3.77;1.83;;;;;;;;;;5043946;28;20471;-81
2023/08/04 11:40:21;;;;;;;2.83;1.40;;;;;;;;;;5043573;28;20468;-80
2023/08/04 11:42:48;;;;;;;2.50;1.37;;;;;;;;;;5043657;28;20476;-80
2023/08/04 11:45:15;;;;;;;3.63;1.40;;;;;;;;;;5042779;28;20980;-80
2023/08/04 11:47:43;;;;;;;4.00;1.70;;;;;;;;;;5041061;28;20866;-81
2023/08/04 11:50:10;;;;;;;2.00;1.60;;;;;;;;;;5046295;28;20475;-79
2023/08/04 11:52:38;;;;;;;1.47;1.23;;;;;;;;;;5042818;28;20485;-81
2023/08/04 11:55:09;;;;;;;1.50;1.40;;;;;;;;;;5043539;28;20480;-81
2023/08/04 11:57:36;;;;;;;2.03;1.83;;;;;;;;;;5043928;28;21168;-82
2023/08/04 12:00:02;;;;;;;2.47;1.60;;;;;;;;;;5042727;28;20923;-80
2023/08/04 12:02:29;;;;;;;3.00;1.40;;;;;;;;;;5042720;28;21513;-80
2023/08/04 12:05:05;;;;;;;1.57;1.47;;;;;;;;;;5042367;28;20981;-80
2023/08/04 12:07:32;;;;;;;4.20;1.50;;;;;;;;;;5042682;28;20509;-82
2023/08/04 12:09:59;;;;;;;2.40;1.40;;;;;;;;;;5044382;28;20452;-81
2023/08/04 12:12:36;;;;;;;1.50;1.30;;;;;;;;;;5043537;28;20533;-80
2023/08/04 12:15:04;;;;;;;3.90;1.40;;;;;;;;;;5042786;28;20529;-81
2023/08/04 12:17:37;;;;;;;2.70;1.77;;;;;;;;;;5046182;28;20456;-81
2023/08/04 12:20:04;;;;;;;2.10;1.43;;;;;;;;;;5044692;28;20464;-81
2023/08/04 12:22:31;;;;;;;2.37;1.60;;;;;;;;;;5041547;28;20481;-82
2023/08/04 12:24:57;;;;;;;2.10;1.33;;;;;;;;;;5046197;28;20456;-81
2023/08/04 12:27:23;;;;;;;2.27;1.70;;;;;;;;;;5042931;28;20463;-81
2023/08/04 12:29:51;;;;;;;1.63;1.53;;;;;;;;;;5044283;28;21035;-81
2023/08/04 12:32:17;;;;;;;1.93;1.37;;;;;;;;;;5042134;28;20476;-80
2023/08/04 12:34:44;;;;;;;3.70;1.97;;;;;;;;;;5042377;28;20851;-81
2023/08/04 12:37:10;;;;;;;2.90;1.47;;;;;;;;;;5044351;28;20460;-81
2023/08/04 12:39:36;;;;;;;1.60;1.40;;;;;;;;;;5040613;28;20505;-81
2023/08/04 12:42:04;;;;;;;7.57;1.47;;;;;;;;;;5041742;28;21019;-81
2023/08/04 12:44:32;;;;;;;2.83;1.50;;;;;;;;;;5044631;28;20662;-81
2023/08/04 12:46:59;;;;;;;3.30;1.53;;;;;;;;;;5042883;28;20981;-81
2023/08/04 12:49:26;;;;;;;5.13;1.50;;;;;;;;;;5039823;28;20917;-80
2023/08/04 12:51:53;;;;;;;6.63;1.93;;;;;;;;;;5037893;28;20485;-81
2023/08/04 12:54:20;;;;;;;2.80;1.70;;;;;;;;;;5040845;28;20463;-80
2023/08/04 12:56:46;;;;;;;6.20;1.90;;;;;;;;;;5042579;28;21042;-81
2023/08/04 12:59:13;;;;;;;4.63;1.60;;;;;;;;;;5042748;28;20977;-80
2023/08/04 13:01:39;;;;;;;4.00;1.53;;;;;;;;;;5044623;28;21013;-81
2023/08/04 13:04:07;;;;;;;3.33;2.00;;;;;;;;;;5040293;28;20483;-81
2023/08/04 13:06:34;;;;;;;2.30;1.70;;;;;;;;;;5038092;28;20440;-79
2023/08/04 13:09:00;;;;;;;1.73;1.47;;;;;;;;;;5042824;28;20481;-80
2023/08/04 13:11:27;;;;;;;1.53;1.43;;;;;;;;;;5040287;28;20465;-79
2023/08/04 13:13:53;;;;;;;1.93;1.57;;;;;;;;;;5042553;28;21170;-80
2023/08/04 13:16:19;;;;;;;4.50;1.63;;;;;;;;;;5042544;28;21086;-79
2023/08/04 13:18:46;;;;;;;3.50;1.60;;;;;;;;;;5040888;28;20480;-79
2023/08/04 13:21:15;;;;;;;3.00;1.60;;;;;;;;;;5043930;28;21012;-79
2023/08/04 13:23:41;;;;;;;6.00;1.77;;;;;;;;;;5040143;28;20574;-80
2023/08/04 13:26:08;;;;;;;3.90;1.47;;;;;;;;;;5040501;28;20467;-79
2023/08/04 13:28:35;;;;;;;2.73;1.23;;;;;;;;;;5042498;28;20562;-80
2023/08/04 13:31:05;;;;;;;4.80;1.77;;;;;;;;;;5042860;28;20803;-79
2023/08/04 13:33:31;;;;;;;2.40;1.80;;;;;;;;;;5037717;28;20473;-79
2023/08/04 13:35:58;;;;;;;2.63;1.97;;;;;;;;;;5041143;28;20992;-79
2023/08/04 13:38:26;;;;;;;4.10;1.70;;;;;;;;;;5039765;28;20491;-79
2023/08/04 13:40:53;;;;;;;2.47;1.60;;;;;;;;;;5042342;28;20473;-79
2023/08/04 13:43:20;;;;;;;1.73;1.23;;;;;;;;;;5042281;28;20471;-79
2023/08/04 13:45:47;;;;;;;3.40;1.40;;;;;;;;;;5040795;28;20460;-79
2023/08/04 13:48:14;;;;;;;3.77;1.53;;;;;;;;;;5042116;28;20484;-79
2023/08/04 13:50:41;;;;;;;5.60;1.40;;;;;;;;;;5041529;28;20464;-79
2023/08/04 13:53:07;;;;;;;3.20;1.60;;;;;;;;;;5039796;28;20483;-79
2023/08/04 13:55:36;;;;;;;1.40;1.03;;;;;;;;;;5041252;28;20484;-79
2023/08/04 13:58:02;;;;;;;3.10;1.50;;;;;;;;;;5042478;28;20518;-79
2023/08/04 14:00:29;;;;;;;3.80;1.47;;;;;;;;;;5043490;28;20447;-79
2023/08/04 14:02:58;;;;;;;1.83;1.60;;;;;;;;;;5041927;28;20479;-79
2023/08/04 14:05:25;;;;;;;1.83;1.73;;;;;;;;;;5042384;28;20456;-79
2023/08/04 14:07:51;;;;;;;1.33;1.20;;;;;;;;;;5040448;28;20552;-79
2023/08/04 14:10:17;;;;;;;2.00;1.90;;;;;;;;;;5039631;28;20460;-79
2023/08/04 14:12:45;;;;;;;6.73;2.20;;;;;;;;;;5041130;28;20476;-79
2023/08/04 14:15:12;;;;;;;4.13;2.20;;;;;;;;;;5039511;28;20484;-79
2023/08/04 14:17:38;;;;;;;2.23;1.50;;;;;;;;;;5041719;28;20462;-80
2023/08/04 14:20:05;;;;;;;3.80;2.40;;;;;;;;;;5042486;28;20467;-79
2023/08/04 14:22:31;;;;;;;7.90;2.40;;;;;;;;;;5043423;28;20502;-81
2023/08/04 14:24:58;;;;;;;4.40;1.90;;;;;;;;;;5039961;28;20440;-79
2023/08/04 14:27:25;;;;;;;3.00;1.80;;;;;;;;;;5042394;28;20471;-79
2023/08/04 14:29:53;;;;;;;4.17;2.40;;;;;;;;;;5040241;28;20480;-79
2023/08/04 14:32:19;;;;;;;5.17;2.67;;;;;;;;;;5043116;28;20495;-79
2023/08/04 14:34:46;;;;;;;2.90;2.03;;;;;;;;;;5041164;28;20993;-79
2023/08/04 14:37:12;;;;;;;2.70;2.17;;;;;;;;;;5040882;28;20496;-79
2023/08/04 14:39:38;;;;;;;6.17;2.30;;;;;;;;;;5041153;28;20479;-79
2023/08/04 14:42:05;;;;;;;3.67;2.17;;;;;;;;;;5041558;28;20476;-79